Flight Track Log - Related Links

Times and Time Zones

All times are in EDT time to prevent confusion due to time zone crossing. See the ANZ289 flight status page for this flight to view local times or setup timezone preferences in your user account.

Time Position Orientation Groundspeed Altitude Reporting Facility
EDT Latitude Longitude Course Direction KTS MPH feet Rate Location/Type
Mon 07:30:10 AM -37.0000 174.8167 217° Southwest 153 176  Level New Zealand
Mon 07:30:13 AM -37.0050 174.8120 73° East 178 205 200 2,786 Climbing FlightAware ADS-B
Mon 07:30:38 AM -36.9980 174.8360 70° East 178 205 1,300 1,882 Climbing FlightAware ADS-B
Mon 07:31:04 AM -36.9910 174.8610 70° East 181 208 1,800 1,543 Climbing FlightAware ADS-B
Mon 07:31:12 AM -36.9833 174.8667 70° East 190 219 1,773 Descending New Zealand
Mon 07:31:48 AM -36.9780 174.9100 72° East 195 224 3,100 4,118 Climbing FlightAware ADS-B
Mon 07:32:03 AM -36.9670 174.9250 47° Northeast 199 229 3,500 931 Climbing FlightAware ADS-B
Mon 07:32:46 AM -36.9260 174.9180 352° North 247 284 4,000 1,059 Climbing FlightAware ADS-B
Mon 07:33:11 AM -36.8950 174.9000 335° Northwest 259 298 4,700 1,440 Climbing FlightAware ADS-B
Mon 07:33:36 AM -36.8670 174.8840 335° Northwest 273 314 5,200 982 Climbing FlightAware ADS-B
Mon 07:34:06 AM -36.8310 174.8650 335° Northwest 295 339 5,600 900 Climbing FlightAware ADS-B
Mon 07:34:16 AM -36.8167 174.8667 335° Northwest 293 337 1,000 Descending New Zealand
Mon 07:34:36 AM -36.7910 174.8450 338° Northwest 316 364 6,100 10,629 Climbing FlightAware ADS-B
Mon 07:34:51 AM -36.7700 174.8340 337° Northwest 328 377 6,200 1,080 Climbing FlightAware ADS-B
Mon 07:35:26 AM -36.7200 174.8080 337° Northwest 343 395 7,000 1,360 Climbing FlightAware ADS-B
Mon 07:36:06 AM -36.6660 174.7810 338° Northwest 349 402 7,900 1,424 Climbing FlightAware ADS-B
Mon 07:36:25 AM -36.6350 174.7650 338° Northwest 348 400 8,400 1,636 Climbing FlightAware ADS-B
Mon 07:36:50 AM -36.5930 174.7430 337° Northwest 353 406 9,100 1,696 Climbing FlightAware ADS-B
Mon 07:37:11 AM -36.5620 174.7270 337° Northwest 363 418 9,700 1,600 Climbing FlightAware ADS-B
Mon 07:37:20 AM -36.5500 174.7167 337° Northwest 364 419 1,538 Descending New Zealand
Mon 07:37:50 AM -36.5000 174.6950 337° Northwest 368 423 10,700 9,520 Climbing FlightAware ADS-B
Mon 07:38:22 AM -36.4500 174.6667 337° Northwest 372 428 1,600 Descending New Zealand
Mon 07:38:35 AM -36.4300 174.6590 337° Northwest 367 422 11,900 16,000 Climbing FlightAware ADS-B
Mon 07:39:10 AM -36.3720 174.6290 337° Northwest 381 438 12,800 1,575 Climbing FlightAware ADS-B
Mon 07:39:23 AM -36.3500 174.6167 337° Northwest 382 440 1,600 Descending New Zealand
Mon 07:39:55 AM -36.2980 174.5910 338° Northwest 381 438 14,000 12,583 Climbing FlightAware ADS-B
Mon 07:40:25 AM -36.2500 174.5667 338° Northwest 391 450 1,650 Descending New Zealand
Mon 07:40:35 AM -36.2300 174.5560 338° Northwest 385 443 15,100 19,440 Climbing FlightAware ADS-B
Mon 07:41:15 AM -36.1630 174.5220 338° Northwest 397 457 16,200 1,704 Climbing FlightAware ADS-B
Mon 07:41:56 AM -36.0940 174.4870 338° Northwest 399 459 17,400 1,481 Climbing FlightAware ADS-B
Mon 07:42:28 AM -36.0333 174.4500 338° Northwest 406 467 1,200 Descending New Zealand
Mon 07:42:36 AM -36.0230 174.4510 338° Northwest 403 464 18,200 21,556 Climbing FlightAware ADS-B
Mon 07:43:22 AM -35.9420 174.4090 337° Northwest 418 481 19,400 1,667 Climbing FlightAware ADS-B
Mon 07:44:06 AM -35.8610 174.3680 338° Northwest 415 478 20,700 1,622 Climbing FlightAware ADS-B
Mon 07:44:36 AM -35.8080 174.3410 338° Northwest 420 483 21,400 1,569 Climbing FlightAware ADS-B
Mon 07:45:11 AM -35.7430 174.3080 338° Northwest 431 496 22,400 1,425 Climbing FlightAware ADS-B
Mon 07:45:56 AM -35.6590 174.2660 338° Northwest 432 497 23,300 1,271 Climbing FlightAware ADS-B
Mon 07:46:35 AM -35.5833 174.2333 338° Northwest 445 512 1,350 Descending New Zealand
Mon 07:46:36 AM -35.5820 174.2270 338° Northwest 448 516 24,200 32,043 Climbing FlightAware ADS-B
Mon 07:47:22 AM -35.4930 174.1820 338° Northwest 450 518 25,100 1,103 Climbing FlightAware ADS-B
Mon 07:48:03 AM -35.4120 174.1420 338° Northwest 465 535 25,800 1,200 Climbing FlightAware ADS-B
Mon 07:48:38 AM -35.3333 174.1000 338° Northwest 469 540 1,385 Descending New Zealand
Mon 07:48:42 AM -35.3330 174.1020 338° Northwest 470 541 26,700 34,653 Climbing FlightAware ADS-B
Mon 07:49:27 AM -35.2430 174.0580 338° Northwest 448 516 28,300 2,512 Climbing FlightAware ADS-B
Mon 07:50:08 AM -35.1680 174.0210 338° Northwest 418 481 30,300 1,650 Climbing FlightAware ADS-B
Mon 07:50:41 AM -35.1000 173.9833 338° Northwest 433 498 308 Descending New Zealand
Mon 07:50:47 AM -35.0940 173.9830 338° Northwest 434 499 30,500 36,235 Climbing FlightAware ADS-B
Mon 07:51:32 AM -35.0050 173.9390 338° Northwest 451 519 30,800 514 Climbing FlightAware ADS-B
Mon 07:51:57 AM -34.9580 173.9160 338° Northwest 455 524 31,100 1,286 Climbing FlightAware ADS-B
Mon 07:52:42 AM -34.8680 173.8720 338° Northwest 454 522 32,300 1,121 Climbing FlightAware ADS-B
Mon 07:52:44 AM -34.8667 173.8667 338° Northwest 455 524 652 Descending New Zealand
Mon 07:53:28 AM -34.7790 173.8280 338° Northwest 452 520 32,800 23,435 Climbing FlightAware ADS-B
Mon 07:54:09 AM -34.6980 173.7880 338° Northwest 465 535 33,200 720 Climbing FlightAware ADS-B
Mon 07:54:43 AM -34.6280 173.7540 338° Northwest 468 539 33,700 571 Climbing FlightAware ADS-B
Mon 07:54:47 AM -34.6167 173.7500 338° Northwest 467 537 360 Descending New Zealand
Mon 07:55:33 AM -34.5280 173.7040 338° Northwest 471 542 34,000 23,721 Climbing FlightAware ADS-B
Mon 07:56:13 AM -34.4450 173.6640 338° Northwest 472 543 34,000  Level FlightAware ADS-B
Mon 07:56:50 AM -34.3667 173.6167 338° Northwest 473 544  Descending New Zealand
Mon 07:56:53 AM -34.3650 173.6250 338° Northwest 465 535 34,000 46,364 Climbing FlightAware ADS-B
Mon 07:57:34 AM -34.2840 173.5850 338° Northwest 466 536 34,000  Level FlightAware ADS-B
Mon 07:58:18 AM -34.1910 173.5410 339° North 465 535 34,000  Level FlightAware ADS-B
Mon 07:58:54 AM -34.1167 173.5000 339° North 473 544  Descending New Zealand
Mon 07:58:59 AM -34.1090 173.5010 339° North 465 535 34,000 40,800 Climbing FlightAware ADS-B
Mon 07:59:44 AM -34.0190 173.4570 338° Northwest 466 536 34,000  Level FlightAware ADS-B
Mon 08:00:15 AM -33.8500 173.3833 338° Northwest 481 554  Descending New Zealand
Mon 08:00:24 AM -33.9360 173.4170 338° Northwest 465 535 34,000 37,778 Climbing FlightAware ADS-B
Mon 08:00:57 AM -33.8667 173.3833 338° Northwest 477 549  Descending New Zealand
Mon 08:01:09 AM -33.8390 173.3750 338° Northwest 474 545 34,000 37,778 Climbing FlightAware ADS-B
Mon 08:01:51 AM -33.7670 173.3470 342° North 474 545 34,000  Level FlightAware ADS-B
Mon 08:02:30 AM -33.6670 173.3110 343° North 484 557 34,000  Level FlightAware ADS-B
Mon 08:03:00 AM -33.6000 173.2833 343° North 484 557  Descending New Zealand
Mon 08:03:07 AM -33.6000 173.2850 343° North 484 557 34,000 36,429 Climbing FlightAware ADS-B
Mon 08:03:56 AM -33.5120 173.2510 343° North 484 557 34,000  Level FlightAware ADS-B
Mon 08:04:02 AM -33.4667 173.2333 343° North 485 558  Descending New Zealand
Mon 08:04:34 AM -33.4430 173.2240 342° North 484 557 34,000 25,185 Climbing FlightAware ADS-B
Mon 08:05:04 AM -33.3333 173.1833 342° North 486 559  Descending New Zealand
Mon 08:05:23 AM -33.3540 173.1890 342° North 484 557 34,000 30,448 Climbing FlightAware ADS-B
Mon 08:06:05 AM -33.2000 173.1333 342° North 487 560  Descending New Zealand
Mon 08:06:11 AM -33.2670 173.1560 342° North 484 557 34,000 48,571 Climbing FlightAware ADS-B
Mon 08:06:47 AM -33.2020 173.1300 341° North 484 557 34,000  Level FlightAware ADS-B
Mon 08:07:23 AM -33.1370 173.1050 342° North 484 557 34,000  Level FlightAware ADS-B
Mon 08:08:09 AM -32.9333 173.0333 342° North 490 564  Descending New Zealand
Mon 08:08:11 AM -33.0500 173.0710 342° North 484 557 34,000 53,684 Climbing FlightAware ADS-B
Mon 08:08:47 AM -32.9850 173.0460 342° North 484 557 34,000  Level FlightAware ADS-B
Mon 08:09:35 AM -32.8980 173.0120 342° North 484 557 34,000  Level FlightAware ADS-B
Mon 08:10:12 AM -32.8310 172.9870 342° North 484 557 34,000  Level FlightAware ADS-B
Mon 08:10:15 AM -32.5667 172.9000 342° North 473 544  Descending New Zealand
Mon 08:10:48 AM -32.7660 172.9610 341° North 484 557 34,000 25,500 Climbing FlightAware ADS-B
Mon 08:11:35 AM -32.6810 172.9290 342° North 484 557 34,000  Level FlightAware ADS-B
Mon 08:12:15 AM -32.3000 172.8167 342° North 473 544  Descending New Zealand
Mon 08:12:25 AM -32.5900 172.8940 342° North 484 557 34,000 572 Climbing FlightAware ADS-B
Mon 08:14:15 AM -32.0500 172.7333 342° North 473 544  Descending New Zealand
Mon 08:16:15 AM -31.8000 172.6333 341° North 473 544 592 Level New Zealand
Mon 08:18:15 AM -31.5500 172.5500 344° North 473 544 614 Level New Zealand
Mon 08:20:15 AM -31.3000 172.4667 344° North 473 544 637 Level New Zealand
Mon 08:22:15 AM -31.0833 172.3833 342° North 490 564 661 Level New Zealand
Mon 08:24:15 AM -30.8167 172.3000 345° North 490 564 688 Level New Zealand
Mon 08:26:15 AM -30.5667 172.2000 341° North 490 564 717 Level New Zealand
Mon 08:28:15 AM -30.3000 172.1167 345° North 490 564 749 Level New Zealand
Mon 08:30:15 AM -30.0333 172.0167 342° North 490 564 783 Level New Zealand
Mon 08:32:15 AM -29.7667 171.9333 345° North 490 564 821 Level New Zealand
Mon 08:34:15 AM -29.5167 171.8500 344° North 504 580 863 Level New Zealand
Mon 08:36:15 AM -29.2333 171.7500 343° North 504 580 909 Level New Zealand
Mon 08:38:15 AM -28.9667 171.6667 345° North 504 580 960 Level New Zealand
Mon 08:40:15 AM -28.7000 171.5667 342° North 504 580 1,017 Level New Zealand
Mon 08:42:15 AM -28.4333 171.4833 345° North 504 580 1,082 Level New Zealand
Mon 08:44:15 AM -28.1500 171.3833 343° North 496 571 1,156 Level New Zealand
Mon 08:46:15 AM -27.8833 171.3000 345° North 496 571 1,240 Level New Zealand
Mon 08:48:15 AM -27.6167 171.2167 345° North 496 571 1,338 Level New Zealand
Mon 08:50:15 AM -27.3500 171.1333 344° North 496 571 1,452 Level New Zealand
Mon 08:52:15 AM -27.0833 171.0500 344° North 496 571 1,588 Level New Zealand
Mon 08:54:15 AM -26.8167 170.9500 341° North 496 571 1,751 Level New Zealand
Mon 08:56:15 AM -26.5500 170.8667 344° North 496 571 1,952 Level New Zealand
Mon 08:58:15 AM -26.2833 170.7833 344° North 496 571 2,205 Level New Zealand
Mon 09:00:17 AM -26.0167 170.7000 344° North 496 571 2,534 Level New Zealand
Mon 09:02:17 AM -25.7500 170.6167 344° North 496 571 2,987 Level New Zealand
Mon 09:04:00 AM -25.5412 170.5164 337° Northwest  Level FlightAware Approximate
Mon 09:11:00 AM -24.6894 170.1145 337° Northwest  Level FlightAware Approximate
Mon 09:11:40 AM -24.5460 170.0550 337° Northwest 492 566 34,000  Level FlightAware ADS-B
Mon 09:12:21 AM -24.4740 170.0210 337° Northwest 492 566 34,000  Level FlightAware ADS-B
Mon 09:13:31 AM -24.3290 169.9510 341° North 491 565 34,000  Level FlightAware ADS-B
Mon 09:14:13 AM -24.2240 169.9040 338° Northwest 490 564 34,000  Level FlightAware ADS-B
Mon 09:14:55 AM -24.1440 169.8660 337° Northwest 490 564 34,000  Level FlightAware ADS-B
Mon 09:15:34 AM -24.0550 169.8250 337° Northwest 490 564 34,000  Level FlightAware ADS-B
Mon 09:16:12 AM -23.9740 169.7880 337° Northwest 489 563 34,000  Level FlightAware ADS-B
Mon 09:16:47 AM -23.9040 169.7550 337° Northwest 490 564 34,000  Level FlightAware ADS-B
Mon 09:17:38 AM -23.7990 169.7070 337° Northwest 492 566 34,000  Level FlightAware ADS-B
Mon 09:18:14 AM -23.7190 169.6690 336° Northwest 492 566 34,000  Level FlightAware ADS-B
Mon 09:18:53 AM -23.6380 169.6320 337° Northwest 493 567 34,000  Level FlightAware ADS-B
Mon 09:19:38 AM -23.5520 169.5910 336° Northwest 493 567 34,000  Level FlightAware ADS-B
Mon 09:20:16 AM -23.4620 169.5510 338° Northwest 494 568 34,000  Level FlightAware ADS-B
Mon 09:21:00 AM -23.3690 169.5080 337° Northwest 493 567 34,000  Level FlightAware ADS-B
Mon 09:21:35 AM -23.2980 169.4760 338° Northwest 492 566 34,000  Level FlightAware ADS-B
Mon 09:22:25 AM -23.1910 169.4270 337° Northwest 492 566 34,000  Level FlightAware ADS-B
Mon 09:23:06 AM -23.1030 169.3860 337° Northwest 492 566 34,000  Level FlightAware ADS-B
Mon 09:23:42 AM -23.0270 169.3520 338° Northwest 493 567 34,000  Level FlightAware ADS-B
Mon 09:24:22 AM -22.9430 169.3130 337° Northwest 493 567 34,000  Level FlightAware ADS-B
Mon 09:24:58 AM -22.8670 169.2790 338° Northwest 494 568 34,000  Level FlightAware ADS-B
Mon 09:25:38 AM -22.7820 169.2400 337° Northwest 494 568 34,000  Level FlightAware ADS-B
Mon 09:26:22 AM -22.6880 169.1970 337° Northwest 494 568 34,000  Level FlightAware ADS-B
Mon 09:27:03 AM -22.6030 169.1590 338° Northwest 494 568 34,000  Level FlightAware ADS-B
Mon 09:27:37 AM -22.5340 169.1270 337° Northwest 493 567 34,000  Level FlightAware ADS-B
Mon 09:28:17 AM -22.4630 169.0950 337° Northwest 493 567 34,000  Level FlightAware ADS-B
Mon 09:29:19 AM -22.3520 169.0440 337° Northwest 493 567 34,000  Level FlightAware ADS-B
Mon 09:29:55 AM -22.2880 169.0140 337° Northwest 493 567 34,000  Level FlightAware ADS-B
Mon 09:30:43 AM -22.2020 168.9750 337° Northwest 493 567 34,000  Level FlightAware ADS-B
Mon 09:31:21 AM -22.1350 168.9440 337° Northwest 493 567 34,000  Level FlightAware ADS-B
Mon 09:32:01 AM -21.9750 168.8750 338° Northwest 491 565 34,000  Level FlightAware ADS-B
Mon 09:32:39 AM -21.8960 168.8390 337° Northwest 491 565 34,000  Level FlightAware ADS-B
Mon 09:33:21 AM -21.8080 168.8000 338° Northwest 491 565 34,000  Level FlightAware ADS-B
Mon 09:34:01 AM -21.7220 168.7610 337° Northwest 490 564 34,000  Level FlightAware ADS-B
Mon 09:34:45 AM -21.6300 168.7200 337° Northwest 490 564 34,000  Level FlightAware ADS-B
Mon 09:35:27 AM -21.5410 168.6800 337° Northwest 491 565 34,000  Level FlightAware ADS-B
Mon 09:36:06 AM -21.4600 168.6440 338° Northwest 491 565 34,000  Level FlightAware ADS-B
Mon 09:36:44 AM -21.3900 168.6130 338° Northwest 492 566 34,000  Level FlightAware ADS-B
Mon 09:37:22 AM -21.3230 168.5820 337° Northwest 492 566 34,000  Level FlightAware ADS-B
Mon 09:38:11 AM -21.2350 168.5420 337° Northwest 492 566 34,000  Level FlightAware ADS-B
Mon 09:38:47 AM -21.1710 168.5130 337° Northwest 492 566 34,000  Level FlightAware ADS-B
Mon 09:39:23 AM -21.1070 168.4840 337° Northwest 492 566 34,000  Level FlightAware ADS-B
Mon 09:40:12 AM -21.0200 168.4440 337° Northwest 492 566 34,000  Level FlightAware ADS-B
Mon 09:40:49 AM -20.9540 168.4140 337° Northwest 492 566 34,000  Level FlightAware ADS-B
Mon 09:41:25 AM -20.8900 168.3850 337° Northwest 492 566 34,000  Level FlightAware ADS-B
Mon 09:42:01 AM -20.8260 168.3560 337° Northwest 492 566 34,000  Level FlightAware ADS-B
Mon 09:42:50 AM -20.7390 168.3160 337° Northwest 492 566 34,000  Level FlightAware ADS-B
Mon 09:43:26 AM -20.6740 168.2870 337° Northwest 492 566 34,000  Level FlightAware ADS-B
Mon 09:44:03 AM -20.6090 168.2570 337° Northwest 492 566 34,000  Level FlightAware ADS-B
Mon 09:44:51 AM -20.5230 168.2190 338° Northwest 492 566 34,000  Level FlightAware ADS-B
Mon 09:45:27 AM -20.4590 168.1900 337° Northwest 492 566 34,000  Level FlightAware ADS-B
Mon 09:46:15 AM -20.3740 168.1510 337° Northwest 492 566 34,000 11 Level FlightAware ADS-B
Mon 09:48:00 AM -20.2048 167.9893 318° Northwest  Level Estimated
Mon 09:49:00 AM -20.1080 167.8971 318° Northwest  Level Estimated
Mon 09:50:00 AM -20.0112 167.8050 318° Northwest  Level Estimated
Mon 09:51:00 AM -19.9144 167.7130 318° Northwest  Level Estimated
Mon 09:52:00 AM -19.8175 167.6211 318° Northwest  Level Estimated
Mon 09:53:00 AM -19.7205 167.5293 318° Northwest  Level Estimated
Mon 09:54:00 AM -19.6235 167.4377 318° Northwest  Level Estimated
Mon 09:55:00 AM -19.5265 167.3461 318° Northwest  Level Estimated
Mon 09:56:00 AM -19.4294 167.2547 318° Northwest  Level Estimated
Mon 09:57:00 AM -19.3323 167.1634 318° Northwest  Level Estimated
Mon 09:58:00 AM -19.2351 167.0721 318° Northwest  Level Estimated
Mon 09:59:00 AM -19.1379 166.9810 318° Northwest  Level Estimated
Mon 10:00:00 AM -19.0406 166.8900 319° Northwest  Level Estimated
Mon 10:01:00 AM -18.9433 166.7991 319° Northwest  Level Estimated
Mon 10:02:00 AM -18.8460 166.7083 319° Northwest  Level Estimated
Mon 10:03:00 AM -18.7486 166.6176 319° Northwest  Level Estimated
Mon 10:04:00 AM -18.6511 166.5271 319° Northwest  Level Estimated
Mon 10:05:00 AM -18.5536 166.4366 319° Northwest  Level Estimated
Mon 10:06:00 AM -18.4561 166.3462 319° Northwest  Level Estimated
Mon 10:07:00 AM -18.3585 166.2559 319° Northwest  Level Estimated
Mon 10:08:00 AM -18.2609 166.1657 319° Northwest  Level Estimated
Mon 10:09:00 AM -18.1633 166.0757 319° Northwest  Level Estimated
Mon 10:10:00 AM -18.0656 165.9857 319° Northwest  Level Estimated
Mon 10:11:00 AM -17.9678 165.8958 319° Northwest  Level Estimated
Mon 10:12:00 AM -17.8700 165.8061 319° Northwest  Level Estimated
Mon 10:13:00 AM -17.7722 165.7164 319° Northwest  Level Estimated
Mon 10:14:00 AM -17.6744 165.6268 319° Northwest  Level Estimated
Mon 10:15:00 AM -17.5765 165.5373 319° Northwest  Level Estimated
Mon 10:16:00 AM -17.4785 165.4480 319° Northwest  Level Estimated
Mon 10:17:00 AM -17.3805 165.3587 319° Northwest  Level Estimated
Mon 10:18:00 AM -17.2825 165.2695 319° Northwest  Level Estimated
Mon 10:19:00 AM -17.1845 165.1804 319° Northwest  Level Estimated
Mon 10:20:00 AM -17.0864 165.0914 319° Northwest  Level Estimated
Mon 10:21:00 AM -16.9882 165.0025 319° Northwest  Level Estimated
Mon 10:22:00 AM -16.8900 164.9137 319° Northwest  Level Estimated
Mon 10:23:00 AM -16.7918 164.8250 319° Northwest  Level Estimated
Mon 10:24:00 AM -16.6936 164.7363 319° Northwest  Level Estimated
Mon 10:25:00 AM -16.5953 164.6478 319° Northwest  Level Estimated
Mon 10:26:00 AM -16.4970 164.5593 319° Northwest  Level Estimated
Mon 10:27:00 AM -16.3986 164.4710 319° Northwest  Level Estimated
Mon 10:28:00 AM -16.3002 164.3827 319° Northwest  Level Estimated
Mon 10:29:00 AM -16.2017 164.2945 319° Northwest  Level Estimated
Mon 10:30:00 AM -16.1033 164.2064 319° Northwest  Level Estimated
Mon 10:31:00 AM -16.0047 164.1184 319° Northwest  Level Estimated
Mon 10:32:00 AM -15.9062 164.0305 319° Northwest  Level Estimated
Mon 10:33:00 AM -15.8076 163.9427 319° Northwest  Level Estimated
Mon 10:34:00 AM -15.7090 163.8549 319° Northwest  Level Estimated
Mon 10:35:00 AM -15.6103 163.7673 319° Northwest  Level Estimated
Mon 10:36:00 AM -15.5117 163.6797 319° Northwest  Level Estimated
Mon 10:37:00 AM -15.4129 163.5922 319° Northwest  Level Estimated
Mon 10:37:52 AM -14.4954 162.3230 327° Northwest 36,000  Level Aus ATC (Calculated)
Mon 10:38:10 AM -14.4440 162.2994 327° Northwest 36,000  Level Aus ATC (Calculated)
Mon 10:40:00 AM -14.2615 162.1416 320° Northwest  Level Estimated
Mon 10:40:52 AM -14.1379 162.1590 327° Northwest 36,000  Level Aus ATC (Calculated)
Mon 10:41:00 AM -14.1620 162.0556 320° Northwest  Level Estimated
Mon 10:42:00 AM -14.0251 162.0616 320° Northwest  Level Estimated
Mon 10:42:01 AM -13.9920 162.0922 326° Northwest 36,000  Level Aus ATC (Calculated)
Mon 10:42:38 AM -13.8970 162.0488 326° Northwest 36,000  Level Aus ATC (Calculated)
Mon 10:44:00 AM -13.7610 161.9313 320° Northwest  Level Estimated
Mon 10:45:00 AM -13.6615 161.8455 320° Northwest  Level Estimated
Mon 10:46:00 AM -13.5620 161.7597 320° Northwest  Level Estimated
Mon 10:47:00 AM -13.4625 161.6740 320° Northwest  Level Estimated
Mon 10:48:00 AM -13.3629 161.5883 320° Northwest  Level Estimated
Mon 10:49:00 AM -13.2632 161.5028 320° Northwest  Level Estimated
Mon 10:50:00 AM -13.1636 161.4173 320° Northwest  Level Estimated
Mon 10:51:00 AM -13.0639 161.3318 320° Northwest  Level Estimated
Mon 10:51:36 AM -12.8208 161.5596 326° Northwest 36,000  Level Aus ATC (Calculated)
Mon 10:53:00 AM -12.6817 161.4396 320° Northwest  Level Estimated
Mon 10:54:00 AM -12.5823 161.3540 320° Northwest  Level Estimated
Mon 10:55:00 AM -12.4829 161.2684 320° Northwest  Level Estimated
Mon 10:56:00 AM -12.3835 161.1829 320° Northwest  Level Estimated
Mon 10:57:00 AM -12.2840 161.0975 320° Northwest  Level Estimated
Mon 10:58:00 AM -12.1846 161.0121 320° Northwest  Level Estimated
Mon 10:59:00 AM -12.0851 160.9268 320° Northwest  Level Estimated
Mon 11:00:00 AM -11.9855 160.8416 320° Northwest  Level Estimated
Mon 11:01:00 AM -11.8860 160.7564 320° Northwest  Level Estimated
Mon 11:02:00 AM -11.7864 160.6713 320° Northwest  Level Estimated
Mon 11:03:00 AM -11.6868 160.5862 320° Northwest  Level Estimated
Mon 11:03:21 AM -11.3606 160.9032 325° Northwest 36,000  Level Aus ATC (Calculated)
Mon 11:04:00 AM -11.5871 160.5012 320° Northwest  Level Estimated
Mon 11:05:00 AM -11.1970 160.7621 320° Northwest  Level Estimated
Mon 11:06:00 AM -11.0979 160.6766 320° Northwest  Level Estimated
Mon 11:07:00 AM -10.9987 160.5913 320° Northwest  Level Estimated
Mon 11:07:36 AM -10.8341 160.6684 324° Northwest 36,000  Level Aus ATC (Calculated)
Mon 11:08:21 AM -10.8341 160.6684 324° Northwest 36,000  Level Aus ATC (Calculated)
Mon 11:10:00 AM -10.6707 160.5273 320° Northwest  Level Estimated
Mon 11:11:00 AM -10.5717 160.4419 320° Northwest  Level Estimated
Mon 11:12:00 AM -10.4726 160.3566 320° Northwest  Level Estimated
Mon 11:13:00 AM -10.3735 160.2713 320° Northwest  Level Estimated
Mon 11:14:00 AM -10.2744 160.1861 320° Northwest  Level Estimated
Mon 11:15:00 AM -10.1752 160.1009 320° Northwest  Level Estimated
Mon 11:16:00 AM -10.0760 160.0158 320° Northwest  Level Estimated
Mon 11:17:00 AM -9.9768 159.9307 320° Northwest  Level Estimated
Mon 11:18:00 AM -9.8776 159.8457 320° Northwest  Level Estimated
Mon 11:19:00 AM -9.7784 159.7607 320° Northwest  Level Estimated
Mon 11:20:00 AM -9.6792 159.6758 320° Northwest  Level Estimated
Mon 11:21:00 AM -9.5799 159.5909 320° Northwest  Level Estimated
Mon 11:22:00 AM -9.4806 159.5061 320° Northwest  Level Estimated
Mon 11:23:00 AM -9.3813 159.4213 320° Northwest  Level Estimated
Mon 11:24:00 AM -9.2819 159.3366 320° Northwest  Level Estimated
Mon 11:25:00 AM -9.1826 159.2519 320° Northwest  Level Estimated
Mon 11:26:00 AM -9.0832 159.1673 320° Northwest  Level Estimated
Mon 11:27:00 AM -8.9838 159.0827 320° Northwest  Level Estimated
Mon 11:28:00 AM -8.8844 158.9982 320° Northwest  Level Estimated
Mon 11:29:00 AM -8.7849 158.9137 320° Northwest  Level Estimated
Mon 11:30:00 AM -8.6855 158.8292 320° Northwest  Level Estimated
Mon 11:31:00 AM -8.5860 158.7448 320° Northwest  Level Estimated
Mon 11:32:00 AM -8.4865 158.6605 320° Northwest  Level Estimated
Mon 11:33:00 AM -8.3870 158.5762 320° Northwest  Level Estimated
Mon 11:33:29 AM -7.8215 158.9144 323° Northwest 36,000  Level Aus ATC (Calculated)
Mon 11:34:00 AM -8.2875 158.4919 320° Northwest  Level Estimated
Mon 11:35:00 AM -7.6717 158.7854 320° Northwest  Level Estimated
Mon 11:36:00 AM -7.5729 158.7004 320° Northwest  Level Estimated
Mon 11:36:00 AM -7.5463 158.7558 322° Northwest 36,000  Level Aus ATC (Calculated)
Mon 11:37:00 AM -7.4475 158.6707 319° Northwest  Level Estimated
Mon 11:37:28 AM -7.3656 158.6518 322° Northwest 36,000  Level Aus ATC (Calculated)
Mon 11:38:50 AM -7.2019 158.5576 322° Northwest 36,000  Level Aus ATC (Calculated)
Mon 11:39:00 AM -7.2143 158.5215 319° Northwest  Level Estimated
Mon 11:40:00 AM -7.0867 158.4584 319° Northwest  Level Estimated
Mon 11:41:00 AM -6.9880 158.3734 319° Northwest  Level Estimated
Mon 11:42:00 AM -6.8893 158.2885 319° Northwest  Level Estimated
Mon 11:43:00 AM -6.7906 158.2036 319° Northwest  Level Estimated
Mon 11:44:00 AM -6.6918 158.1187 320° Northwest  Level Estimated
Mon 11:45:00 AM -6.5931 158.0338 320° Northwest  Level Estimated
Mon 11:45:52 AM -6.3607 158.0751 321° Northwest 36,000  Level Aus ATC (Calculated)
Mon 11:46:00 AM -6.4943 157.9490 320° Northwest  Level Estimated
Mon 11:47:00 AM -6.2490 157.9787 319° Northwest  Level Estimated
Mon 11:48:00 AM -6.1504 157.8937 319° Northwest  Level Estimated
Mon 11:49:00 AM -5.9904 157.7559 319° Northwest  Level Estimated
Mon 11:50:00 AM -5.8305 157.6181 319° Northwest  Level Estimated
Mon 11:51:00 AM -5.6704 157.4804 319° Northwest  Level Estimated
Mon 11:52:00 AM -5.5104 157.3428 319° Northwest  Level Estimated
Mon 11:53:00 AM -5.3503 157.2052 319° Northwest  Level Estimated
Mon 11:53:51 AM -5.3990 157.4679 320° Northwest 36,000  Level Aus ATC (Calculated)
Mon 11:54:00 AM -5.1901 157.0677 319° Northwest  Level Estimated
Mon 11:55:00 AM -5.2858 157.3702 319° Northwest  Level Estimated
Mon 11:55:06 AM -5.2676 157.3584 320° Northwest 36,000  Level Aus ATC (Calculated)
Mon 11:57:00 AM -5.0805 157.1969 319° Northwest  Level Estimated
Mon 11:58:00 AM -4.9821 157.1119 319° Northwest  Level Estimated
Mon 11:59:00 AM -4.8836 157.0270 319° Northwest  Level Estimated
Mon 12:00:00 PM -4.7851 156.9421 319° Northwest  Level Estimated
Mon 12:01:00 PM -4.6866 156.8572 319° Northwest  Level Estimated
Mon 12:02:00 PM -4.5881 156.7724 319° Northwest  Level Estimated
Mon 12:03:00 PM -4.4896 156.6876 319° Northwest  Level Estimated
Mon 12:04:00 PM -4.3910 156.6028 319° Northwest  Level Estimated
Mon 12:05:00 PM -4.2925 156.5180 319° Northwest  Level Estimated
Mon 12:06:00 PM -4.1940 156.4332 319° Northwest  Level Estimated
Mon 12:07:00 PM -4.0954 156.3485 319° Northwest  Level Estimated
Mon 12:08:00 PM -3.9968 156.2638 319° Northwest  Level Estimated
Mon 12:09:00 PM -3.8982 156.1791 319° Northwest  Level Estimated
Mon 12:09:19 PM -3.6892 156.0465 320° Northwest 36,000  Level Aus ATC (Calculated)
Mon 12:09:34 PM -3.6453 156.0101 320° Northwest 36,000  Level Aus ATC (Calculated)
Mon 12:11:00 PM -3.5041 155.8888 319° Northwest  Level Estimated
Mon 12:12:00 PM -3.4055 155.8041 319° Northwest  Level Estimated
Mon 12:13:00 PM -3.3069 155.7194 319° Northwest  Level Estimated
Mon 12:14:00 PM -3.2084 155.6348 319° Northwest  Level Estimated
Mon 12:15:00 PM -3.1098 155.5502 319° Northwest  Level Estimated
Mon 12:16:00 PM -3.0112 155.4656 319° Northwest  Level Estimated
Mon 12:17:00 PM -2.9126 155.3810 319° Northwest  Level Estimated
Mon 12:18:00 PM -2.8140 155.2964 319° Northwest  Level Estimated
Mon 12:19:00 PM -2.7154 155.2119 319° Northwest  Level Estimated
Mon 12:20:00 PM -2.6167 155.1273 319° Northwest  Level Estimated
Mon 12:21:00 PM -2.5181 155.0428 319° Northwest  Level Estimated
Mon 12:22:00 PM -2.4195 154.9583 319° Northwest  Level Estimated
Mon 12:23:00 PM -2.3209 154.8738 319° Northwest  Level Estimated
Mon 12:24:00 PM -2.2222 154.7893 319° Northwest  Level Estimated
Mon 12:25:00 PM -2.1236 154.7048 319° Northwest  Level Estimated
Mon 12:26:00 PM -2.0249 154.6204 319° Northwest  Level Estimated
Mon 12:27:00 PM -1.9263 154.5359 319° Northwest  Level Estimated
Mon 12:28:00 PM -1.8276 154.4514 319° Northwest  Level Estimated
Mon 12:29:00 PM -1.7290 154.3670 319° Northwest  Level Estimated
Mon 12:30:00 PM -1.6303 154.2826 319° Northwest  Level Estimated
Mon 12:31:00 PM -1.5316 154.1982 319° Northwest  Level Estimated
Mon 12:32:00 PM -1.4330 154.1138 319° Northwest  Level Estimated
Mon 12:33:00 PM -1.3343 154.0293 319° Northwest  Level Estimated
Mon 12:34:00 PM -1.2356 153.9449 319° Northwest  Level Estimated
Mon 12:35:00 PM -1.1369 153.8605 319° Northwest  Level Estimated
Mon 12:36:00 PM -1.0382 153.7762 319° Northwest  Level Estimated
Mon 12:37:00 PM -0.9396 153.6918 319° Northwest  Level Estimated
Mon 12:38:00 PM -0.8409 153.6074 319° Northwest  Level Estimated
Mon 12:39:00 PM -0.7422 153.5230 319° Northwest  Level Estimated
Mon 12:40:00 PM -0.6435 153.4387 319° Northwest  Level Estimated
Mon 12:41:00 PM -0.5448 153.3543 319° Northwest  Level Estimated
Mon 12:42:00 PM -0.4461 153.2699 319° Northwest  Level Estimated
Mon 12:43:00 PM -0.3474 153.1856 319° Northwest  Level Estimated
Mon 12:44:00 PM -0.2487 153.1012 319° Northwest  Level Estimated
Mon 12:45:00 PM -0.1500 153.0168 319° Northwest  Level Estimated
Mon 12:46:00 PM -0.0513 152.9325 319° Northwest  Level Estimated
Mon 12:46:53 PM 0.0000 153.0000 321° Northwest 492 566 36,000  Level Oakland Oceanic (ODAPS)
Mon 12:47:00 PM 0.0474 152.8481 319° Northwest  Level Estimated
Mon 12:48:00 PM 0.1461 152.7638 319° Northwest  Level Estimated
Mon 12:48:07 PM 0.1333 152.9000 321° Northwest 492 566 36,000  Level Oakland Oceanic (ODAPS)
Mon 12:49:00 PM 0.2448 152.6794 319° Northwest  Level Estimated
Mon 12:49:46 PM 0.3167 152.7500 321° Northwest 496 571 36,000  Level Oakland Oceanic (ODAPS)
Mon 12:50:00 PM 0.3435 152.5950 319° Northwest  Level Estimated
Mon 12:51:00 PM 0.4421 152.5107 319° Northwest  Level Estimated
Mon 12:52:00 PM 0.5450 152.4318 322° Northwest  Level FlightAware Approximate
Mon 12:53:00 PM 0.6527 152.4796 321° Northwest 492 566 36,000  Level FlightAware Transoceanic
Mon 12:54:00 PM 0.8745 152.3080 321° Northwest 492 566 36,000  Level FlightAware Transoceanic
Mon 12:55:00 PM 0.9804 152.2234 321° Northwest 492 566 36,000  Level FlightAware Transoceanic
Mon 12:56:00 PM 0.9707 152.2281 321° Northwest 496 571 36,000  Level FlightAware Transoceanic
Mon 12:57:00 PM 1.0797 152.1411 321° Northwest 496 571 36,000  Level FlightAware Transoceanic
Mon 12:58:00 PM 1.1887 152.0541 321° Northwest 496 571 36,000  Level FlightAware Transoceanic
Mon 12:59:00 PM 1.2977 151.9671 321° Northwest 496 571 36,000  Level FlightAware Transoceanic
Mon 01:00:00 PM 1.4067 151.8801 321° Northwest 496 571 36,000  Level FlightAware Transoceanic
Mon 01:01:00 PM 1.5157 151.7930 321° Northwest 496 571 36,000  Level FlightAware Transoceanic
Mon 01:02:00 PM 1.6246 151.7060 321° Northwest 496 571 36,000  Level FlightAware Transoceanic
Mon 01:03:00 PM 1.7336 151.6189 321° Northwest 496 571 36,000  Level FlightAware Transoceanic
Mon 01:03:38 PM 1.7833 151.5833 321° Northwest 490 564 36,000  Level Oakland Oceanic (ODAPS)
Mon 01:04:00 PM 1.8426 151.5319 321° Northwest 496 571 36,000  Level FlightAware Transoceanic
Mon 01:05:00 PM 1.9516 151.4448 321° Northwest 496 571 36,000  Level FlightAware Transoceanic
Mon 01:06:00 PM 2.0605 151.3577 321° Northwest 496 571 36,000  Level FlightAware Transoceanic
Mon 01:07:00 PM 2.1695 151.2706 321° Northwest 496 571 36,000  Level FlightAware Transoceanic
Mon 01:08:00 PM 2.2785 151.1835 321° Northwest 496 571 36,000  Level FlightAware Transoceanic
Mon 01:09:00 PM 2.3874 151.0964 321° Northwest 496 571 36,000  Level FlightAware Transoceanic
Mon 01:10:00 PM 2.5102 151.0014 321° Northwest 490 564 36,000  Level FlightAware Transoceanic
Mon 01:11:00 PM 2.6140 150.9182 321° Northwest 490 564 36,000  Level FlightAware Transoceanic
Mon 01:12:00 PM 2.7179 150.8350 321° Northwest 490 564 36,000  Level FlightAware Transoceanic
Mon 01:13:00 PM 2.8217 150.7518 321° Northwest 490 564 36,000  Level FlightAware Transoceanic
Mon 01:14:00 PM 2.9255 150.6685 321° Northwest 490 564 36,000  Level FlightAware Transoceanic
Mon 01:15:00 PM 3.0293 150.5853 321° Northwest 490 564 36,000  Level FlightAware Transoceanic
Mon 01:16:00 PM 3.1331 150.5020 321° Northwest 490 564 36,000  Level FlightAware Transoceanic
Mon 01:17:00 PM 3.2369 150.4188 321° Northwest 490 564 36,000  Level FlightAware Transoceanic
Mon 01:17:31 PM 3.2500 150.4000 321° Northwest 495 570 36,000  Level Oakland Oceanic (ODAPS)
Mon 01:18:00 PM 3.3406 150.3355 321° Northwest 490 564 36,000  Level FlightAware Transoceanic
Mon 01:19:00 PM 3.4444 150.2522 321° Northwest 490 564 36,000  Level FlightAware Transoceanic
Mon 01:20:00 PM 3.5482 150.1688 321° Northwest 490 564 36,000  Level FlightAware Transoceanic
Mon 01:21:00 PM 3.6519 150.0855 321° Northwest 490 564 36,000  Level FlightAware Transoceanic
Mon 01:22:00 PM 3.7557 150.0021 321° Northwest 490 564 36,000  Level FlightAware Transoceanic
Mon 01:23:00 PM 3.8679 149.9066 321° Northwest 495 570 36,000  Level FlightAware Transoceanic
Mon 01:24:00 PM 3.9709 149.8243 321° Northwest 495 570 36,000  Level FlightAware Transoceanic
Mon 01:25:00 PM 4.0738 149.7419 321° Northwest 495 570 36,000  Level FlightAware Transoceanic
Mon 01:26:00 PM 4.1768 149.6596 321° Northwest 495 570 36,000  Level FlightAware Transoceanic
Mon 01:27:00 PM 4.2797 149.5772 321° Northwest 495 570 36,000  Level FlightAware Transoceanic
Mon 01:28:00 PM 4.3826 149.4948 321° Northwest 495 570 36,000  Level FlightAware Transoceanic
Mon 01:29:00 PM 4.4856 149.4124 321° Northwest 495 570 36,000  Level FlightAware Transoceanic
Mon 01:30:00 PM 4.5885 149.3300 321° Northwest 495 570 36,000  Level FlightAware Transoceanic
Mon 01:31:00 PM 4.6914 149.2475 321° Northwest 495 570 36,000  Level FlightAware Transoceanic
Mon 01:31:22 PM 4.7500 149.2000 321° Northwest 498 573 36,000  Level Oakland Oceanic (ODAPS)
Mon 01:32:00 PM 4.7943 149.1650 321° Northwest 495 570 36,000  Level FlightAware Transoceanic
Mon 01:33:00 PM 4.8971 149.0825 321° Northwest 495 570 36,000 713 Level FlightAware Transoceanic
Mon 01:33:41 PM 5.0000 149.0000 320° Northwest 501 577 37,200  Climbing Oakland Oceanic (ODAPS)
Mon 01:34:00 PM 5.0000 149.0000 320° Northwest 495 570 36,000 -911 Descending FlightAware Transoceanic
Mon 01:35:00 PM 5.1095 148.9087 320° Northwest 495 570 36,000  Level FlightAware Transoceanic
Mon 01:36:00 PM 5.2190 148.8174 320° Northwest 495 570 36,000  Level FlightAware Transoceanic
Mon 01:37:00 PM 5.4272 148.6435 320° Northwest 498 573 36,000  Level FlightAware Transoceanic
Mon 01:38:00 PM 5.5340 148.5543 320° Northwest 498 573 36,000 600 Level FlightAware Transoceanic
Mon 01:39:00 PM 5.6407 148.4651 320° Northwest 501 577 37,200 600 Climbing FlightAware Transoceanic
Mon 01:40:00 PM 5.7475 148.3758 320° Northwest 501 577 37,200  Level FlightAware Transoceanic
Mon 01:41:00 PM 5.8542 148.2865 320° Northwest 501 577 37,200  Level FlightAware Transoceanic
Mon 01:42:00 PM 5.9609 148.1972 320° Northwest 501 577 37,200  Level FlightAware Transoceanic
Mon 01:43:00 PM 6.0676 148.1078 320° Northwest 501 577 37,200  Level FlightAware Transoceanic
Mon 01:44:00 PM 6.1743 148.0184 320° Northwest 501 577 37,200  Level FlightAware Transoceanic
Mon 01:45:00 PM 6.2810 147.9290 320° Northwest 501 577 37,200 640 Level FlightAware Transoceanic
Mon 01:45:15 PM 6.2333 147.9667 320° Northwest 503 579 38,000  Climbing Oakland Oceanic (ODAPS)
Mon 01:46:00 PM 6.3876 147.8395 320° Northwest 501 577 37,200 -457 Descending FlightAware Transoceanic
Mon 01:47:00 PM 6.4942 147.7500 320° Northwest 501 577 37,200  Level FlightAware Transoceanic
Mon 01:48:00 PM 6.6009 147.6604 320° Northwest 501 577 37,200  Level FlightAware Transoceanic
Mon 01:49:00 PM 6.7075 147.5708 320° Northwest 501 577 37,200  Level FlightAware Transoceanic
Mon 01:50:00 PM 6.8141 147.4812 320° Northwest 501 577 37,200 400 Level FlightAware Transoceanic
Mon 01:51:00 PM 6.8829 147.4215 320° Northwest 503 579 38,000 400 Climbing FlightAware Transoceanic
Mon 01:52:00 PM 6.9911 147.3305 320° Northwest 503 579 38,000  Level FlightAware Transoceanic
Mon 01:53:00 PM 7.0993 147.2395 320° Northwest 503 579 38,000  Level FlightAware Transoceanic
Mon 01:54:00 PM 7.2075 147.1484 320° Northwest 503 579 38,000  Level FlightAware Transoceanic
Mon 01:55:00 PM 7.3156 147.0573 320° Northwest 503 579 38,000  Level FlightAware Transoceanic
Mon 01:56:00 PM 7.4237 146.9661 320° Northwest 503 579 38,000  Level FlightAware Transoceanic
Mon 01:57:00 PM 7.5319 146.8749 320° Northwest 503 579 38,000  Level FlightAware Transoceanic
Mon 01:58:00 PM 7.6399 146.7836 320° Northwest 503 579 38,000  Level FlightAware Transoceanic
Mon 01:59:00 PM 7.7480 146.6923 320° Northwest 503 579 38,000  Level FlightAware Transoceanic
Mon 01:59:08 PM 7.7333 146.7000 320° Northwest 512 589 38,000  Level Oakland Oceanic (ODAPS)
Mon 02:00:00 PM 7.8561 146.6010 320° Northwest 503 579 38,000  Level FlightAware Transoceanic
Mon 02:01:00 PM 7.9641 146.5095 320° Northwest 503 579 38,000  Level FlightAware Transoceanic
Mon 02:02:00 PM 8.0721 146.4181 320° Northwest 503 579 38,000  Level FlightAware Transoceanic
Mon 02:03:00 PM 8.1801 146.3266 320° Northwest 503 579 38,000  Level FlightAware Transoceanic
Mon 02:04:00 PM 8.2881 146.2350 320° Northwest 503 579 38,000  Level FlightAware Transoceanic
Mon 02:05:00 PM 8.3872 146.1481 320° Northwest 512 589 38,000  Level FlightAware Transoceanic
Mon 02:06:00 PM 8.4962 146.0559 320° Northwest 512 589 38,000  Level FlightAware Transoceanic
Mon 02:07:00 PM 8.6051 145.9637 320° Northwest 512 589 38,000  Level FlightAware Transoceanic
Mon 02:08:00 PM 8.7139 145.8714 320° Northwest 512 589 38,000  Level FlightAware Transoceanic
Mon 02:09:00 PM 8.8228 145.7791 320° Northwest 512 589 38,000  Level FlightAware Transoceanic
Mon 02:10:00 PM 8.9316 145.6867 320° Northwest 512 589 38,000  Level FlightAware Transoceanic
Mon 02:11:00 PM 9.0404 145.5943 320° Northwest 512 589 38,000  Level FlightAware Transoceanic
Mon 02:12:00 PM 9.1492 145.5018 320° Northwest 512 589 38,000  Level FlightAware Transoceanic
Mon 02:13:00 PM 9.2579 145.4093 320° Northwest 512 589 38,000  Level FlightAware Transoceanic
Mon 02:14:00 PM 9.3667 145.3167 324° Northwest 512 589 38,000  Level FlightAware Transoceanic
Mon 02:15:00 PM 9.4777 145.2336 324° Northwest 512 589 38,000  Level FlightAware Transoceanic
Mon 02:15:03 PM 9.4667 145.2833 324° Northwest 520 598 38,000  Level Guam Center
Mon 02:16:00 PM 9.5887 145.1506 324° Northwest 512 589 38,000  Level FlightAware Transoceanic
Mon 02:16:03 PM 9.5667 145.2000 321° Northwest 500 575 38,000  Level Guam Center
Mon 02:17:00 PM 9.6998 145.0674 324° Northwest 512 589 38,000  Level FlightAware Transoceanic
Mon 02:17:03 PM 9.6833 145.1167 325° Northwest 500 575 38,000  Level Guam Center
Mon 02:18:00 PM 9.8108 144.9843 324° Northwest 512 589 38,000  Level FlightAware Transoceanic
Mon 02:18:03 PM 9.8000 145.0333 325° Northwest 500 575 38,000  Level Guam Center
Mon 02:19:00 PM 9.9217 144.9010 324° Northwest 512 589 38,000  Level FlightAware Transoceanic
Mon 02:19:04 PM 9.9000 144.9500 321° Northwest 500 575 38,000  Level Guam Center
Mon 02:20:00 PM 10.0327 144.8177 324° Northwest 512 589 38,000  Level FlightAware Transoceanic
Mon 02:20:04 PM 10.0167 144.8667 325° Northwest 500 575 38,000  Level Guam Center
Mon 02:21:04 PM 10.1333 144.7833 325° Northwest 500 575 38,000  Level Guam Center
Mon 02:22:04 PM 10.2333 144.7000 321° Northwest 500 575 38,000  Level Guam Center
Mon 02:23:04 PM 10.3500 144.6167 325° Northwest 510 587 38,000  Level Guam Center
Mon 02:24:04 PM 10.4667 144.5333 325° Northwest 500 575 38,000  Level Guam Center
Mon 02:25:05 PM 10.5833 144.4333 320° Northwest 510 587 38,000  Level Guam Center
Mon 02:26:05 PM 10.6833 144.3500 321° Northwest 500 575 38,000  Level Guam Center
Mon 02:27:05 PM 10.8000 144.2667 325° Northwest 500 575 38,000  Level Guam Center
Mon 02:28:05 PM 10.9167 144.1833 325° Northwest 500 575 38,000  Level Guam Center
Mon 02:29:05 PM 11.0167 144.1000 321° Northwest 500 575 38,000  Level Guam Center
Mon 02:30:05 PM 11.1333 144.0167 325° Northwest 500 575 38,000  Level Guam Center
Mon 02:31:06 PM 11.2500 143.9167 320° Northwest 500 575 38,000  Level Guam Center
Mon 02:32:05 PM 11.3500 143.8333 321° Northwest 500 575 38,000  Level Guam Center
Mon 02:33:05 PM 11.4667 143.7500 325° Northwest 500 575 38,000  Level Guam Center
Mon 02:34:06 PM 11.5667 143.6667 321° Northwest 490 564 38,000  Level Guam Center
Mon 02:35:06 PM 11.6833 143.5833 325° Northwest 490 564 38,000  Level Guam Center
Mon 02:36:06 PM 11.7833 143.5000 321° Northwest 490 564 38,000  Level Guam Center
Mon 02:37:06 PM 11.9000 143.4167 325° Northwest 480 552 38,000  Level Guam Center
Mon 02:38:06 PM 12.0000 143.3333 321° Northwest 480 552 38,000  Level Guam Center
Mon 02:39:06 PM 12.1167 143.2500 325° Northwest 490 564 38,000  Level Guam Center
Mon 02:40:07 PM 12.2167 143.1667 321° Northwest 480 552 38,000  Level Guam Center
Mon 02:41:07 PM 12.3333 143.0833 325° Northwest 480 552 38,000  Level Guam Center
Mon 02:42:07 PM 12.4333 143.0000 321° Northwest 480 552 38,000  Level Guam Center
Mon 02:43:07 PM 12.5333 142.9167 321° Northwest 480 552 38,000  Level Guam Center
Mon 02:44:07 PM 12.6500 142.8333 325° Northwest 480 552 38,000  Level Guam Center
Mon 02:45:07 PM 12.7500 142.7500 321° Northwest 490 564 38,000  Level Guam Center
Mon 02:46:08 PM 12.8667 142.6667 325° Northwest 480 552 38,000  Level Guam Center
Mon 02:47:08 PM 12.9667 142.5833 321° Northwest 490 564 38,000  Level Guam Center
Mon 02:48:08 PM 13.0833 142.5000 325° Northwest 480 552 38,000  Level Guam Center
Mon 02:49:08 PM 13.1833 142.4167 321° Northwest 480 552 38,000  Level Guam Center
Mon 02:50:08 PM 13.3000 142.3333 325° Northwest 490 564 38,000  Level Guam Center
Mon 02:52:09 PM 13.5167 142.1667 323° Northwest 480 552 38,000  Level Guam Center
Mon 02:53:09 PM 13.6167 142.0833 321° Northwest 480 552 38,000  Level Guam Center
Mon 02:54:09 PM 13.7167 142.0000 321° Northwest 480 552 38,000  Level Guam Center
Mon 02:55:09 PM 13.8333 141.9167 325° Northwest 480 552 38,000  Level Guam Center
Mon 02:56:09 PM 13.9333 141.8333 321° Northwest 480 552 38,000  Level Guam Center
Mon 02:57:09 PM 14.0500 141.7500 325° Northwest 490 564 38,000  Level Guam Center
Mon 02:58:10 PM 14.1500 141.6667 321° Northwest 490 564 38,000  Level Guam Center
Mon 02:59:10 PM 14.2667 141.5667 320° Northwest 480 552 38,000  Level Guam Center
Mon 03:01:10 PM 14.4833 141.4000 323° Northwest 490 564 38,000  Level Guam Center
Mon 03:02:10 PM 14.5833 141.3167 321° Northwest 490 564 38,000  Level Guam Center
Mon 03:03:10 PM 14.7000 141.2333 325° Northwest 490 564 38,000  Level Guam Center
Mon 03:04:10 PM 14.8000 141.1500 321° Northwest 490 564 38,000  Level Guam Center
Mon 03:05:10 PM 14.9167 141.0667 325° Northwest 490 564 38,000  Level Guam Center
Mon 03:06:10 PM 15.0167 140.9833 321° Northwest 490 564 38,000  Level Guam Center
Mon 03:08:22 PM 15.2667 140.7500 317° Northwest 489 563 38,000  Level Oakland Oceanic (ODAPS)
Mon 03:08:40 PM 15.2833 140.7167 317° Northwest 490 564 38,000  Level Oakland Oceanic (ODAPS)
Mon 03:10:24 PM 15.4000 140.6167 317° Northwest 490 564 38,000  Level Oakland Oceanic (ODAPS)
Mon 03:14:00 PM 15.8572 140.1767 317° Northwest 489 563 38,000  Level FlightAware Transoceanic
Mon 03:15:00 PM 15.8823 140.1368 317° Northwest 490 564 38,000  Level FlightAware Transoceanic
Mon 03:16:00 PM 16.0963 139.9395 317° Northwest 490 564 38,000  Level FlightAware Transoceanic
Mon 03:17:00 PM 16.1955 139.8424 317° Northwest 490 564 38,000  Level FlightAware Transoceanic
Mon 03:18:00 PM 16.2948 139.7452 317° Northwest 490 564 38,000  Level FlightAware Transoceanic
Mon 03:19:00 PM 16.3940 139.6479 317° Northwest 490 564 38,000  Level FlightAware Transoceanic
Mon 03:20:00 PM 16.4932 139.5505 317° Northwest 490 564 38,000  Level FlightAware Transoceanic
Mon 03:21:00 PM 16.5923 139.4529 317° Northwest 490 564 38,000  Level FlightAware Transoceanic
Mon 03:22:00 PM 16.6913 139.3553 317° Northwest 490 564 38,000  Level FlightAware Transoceanic
Mon 03:22:39 PM 16.6667 139.3667 317° Northwest 488 562 38,000  Level Oakland Oceanic (ODAPS)
Mon 03:23:00 PM 16.7903 139.2576 317° Northwest 490 564 38,000  Level FlightAware Transoceanic
Mon 03:24:00 PM 16.8893 139.1598 317° Northwest 490 564 38,000  Level FlightAware Transoceanic
Mon 03:25:00 PM 16.9883 139.0619 317° Northwest 490 564 38,000  Level FlightAware Transoceanic
Mon 03:26:00 PM 17.0871 138.9639 317° Northwest 490 564 38,000  Level FlightAware Transoceanic
Mon 03:27:00 PM 17.1860 138.8657 316° Northwest 490 564 38,000  Level FlightAware Transoceanic
Mon 03:28:00 PM 17.2847 138.7675 316° Northwest 490 564 38,000  Level FlightAware Transoceanic
Mon 03:29:00 PM 17.3473 138.6941 317° Northwest 488 562 38,000  Level FlightAware Transoceanic
Mon 03:30:00 PM 17.4444 138.5977 316° Northwest 488 562 38,000  Level FlightAware Transoceanic
Mon 03:31:00 PM 17.5414 138.5011 316° Northwest 488 562 38,000  Level FlightAware Transoceanic
Mon 03:32:00 PM 17.6384 138.4044 316° Northwest 488 562 38,000  Level FlightAware Transoceanic
Mon 03:33:00 PM 17.7353 138.3076 316° Northwest 488 562 38,000  Level FlightAware Transoceanic
Mon 03:34:00 PM 17.8322 138.2107 316° Northwest 488 562 38,000  Level FlightAware Transoceanic
Mon 03:35:00 PM 17.9290 138.1137 316° Northwest 488 562 38,000  Level FlightAware Transoceanic
Mon 03:36:00 PM 18.0258 138.0166 316° Northwest 488 562 38,000  Level FlightAware Transoceanic
Mon 03:36:30 PM 18.0167 138.0333 316° Northwest 484 557 38,000  Level Oakland Oceanic (ODAPS)
Mon 03:37:00 PM 18.1225 137.9194 316° Northwest 488 562 38,000  Level FlightAware Transoceanic
Mon 03:38:00 PM 18.2192 137.8221 316° Northwest 488 562 38,000  Level FlightAware Transoceanic
Mon 03:39:00 PM 18.3158 137.7247 316° Northwest 488 562 38,000  Level FlightAware Transoceanic
Mon 03:40:00 PM 18.4124 137.6271 316° Northwest 488 562 38,000  Level FlightAware Transoceanic
Mon 03:41:00 PM 18.5089 137.5295 316° Northwest 488 562 38,000  Level FlightAware Transoceanic
Mon 03:42:00 PM 18.5981 137.4453 316° Northwest 484 557 38,000  Level FlightAware Transoceanic
Mon 03:43:00 PM 18.6948 137.3469 316° Northwest 484 557 38,000  Level FlightAware Transoceanic
Mon 03:44:00 PM 18.7915 137.2484 316° Northwest 484 557 38,000  Level FlightAware Transoceanic
Mon 03:45:00 PM 18.8881 137.1497 316° Northwest 484 557 38,000  Level FlightAware Transoceanic
Mon 03:46:00 PM 18.9847 137.0510 316° Northwest 484 557 38,000  Level FlightAware Transoceanic
Mon 03:47:00 PM 19.0812 136.9522 316° Northwest 484 557 38,000  Level FlightAware Transoceanic
Mon 03:48:00 PM 19.1777 136.8532 316° Northwest 484 557 38,000  Level FlightAware Transoceanic
Mon 03:49:00 PM 19.2741 136.7541 316° Northwest 484 557 38,000  Level FlightAware Transoceanic
Mon 03:50:00 PM 19.3704 136.6549 316° Northwest 484 557 38,000  Level FlightAware Transoceanic
Mon 03:50:23 PM 19.3667 136.6667 316° Northwest 486 559 38,000  Level Oakland Oceanic (ODAPS)
Mon 03:51:00 PM 19.4667 136.5556 316° Northwest 484 557 38,000  Level FlightAware Transoceanic
Mon 03:52:00 PM 19.5630 136.4562 316° Northwest 484 557 38,000  Level FlightAware Transoceanic
Mon 03:53:00 PM 19.6592 136.3566 316° Northwest 484 557 38,000  Level FlightAware Transoceanic
Mon 03:54:00 PM 19.7553 136.2569 316° Northwest 484 557 38,000  Level FlightAware Transoceanic
Mon 03:55:00 PM 19.8514 136.1571 316° Northwest 484 557 38,000  Level FlightAware Transoceanic
Mon 03:56:00 PM 19.9450 136.0649 315° West 486 559 38,000  Level FlightAware Transoceanic
Mon 03:57:00 PM 20.0412 135.9642 315° West 486 559 38,000  Level FlightAware Transoceanic
Mon 03:58:00 PM 20.1374 135.8633 315° West 486 559 38,000  Level FlightAware Transoceanic
Mon 03:59:00 PM 20.2334 135.7623 315° West 486 559 38,000  Level FlightAware Transoceanic
Mon 04:00:00 PM 20.3295 135.6612 315° West 486 559 38,000  Level FlightAware Transoceanic
Mon 04:01:00 PM 20.4254 135.5600 315° West 486 559 38,000  Level FlightAware Transoceanic
Mon 04:02:00 PM 20.5214 135.4587 315° West 486 559 38,000  Level FlightAware Transoceanic
Mon 04:03:00 PM 20.6172 135.3572 315° West 486 559 38,000  Level FlightAware Transoceanic
Mon 04:04:00 PM 20.7130 135.2556 315° West 486 559 38,000  Level FlightAware Transoceanic
Mon 04:04:16 PM 20.7000 135.2667 315° West 490 564 38,000  Level Oakland Oceanic (ODAPS)
Mon 04:05:00 PM 20.8087 135.1539 315° West 486 559 38,000  Level FlightAware Transoceanic
Mon 04:06:00 PM 20.9044 135.0520 315° West 486 559 38,000  Level FlightAware Transoceanic
Mon 04:07:00 PM 21.0000 134.9500 291° West 486 559 38,000  Level FlightAware Transoceanic
Mon 04:08:00 PM 21.0492 134.8150 291° West 486 559 38,000  Level FlightAware Transoceanic
Mon 04:09:00 PM 21.0984 134.6800 291° West 486 559 38,000  Level FlightAware Transoceanic
Mon 04:10:00 PM 21.1474 134.5449 291° West 490 564 38,000  Level FlightAware Transoceanic
Mon 04:11:00 PM 21.1963 134.4097 291° West 490 564 38,000  Level FlightAware Transoceanic
Mon 04:12:00 PM 21.2451 134.2744 291° West 490 564 38,000  Level FlightAware Transoceanic
Mon 04:13:00 PM 21.2938 134.1390 291° West 490 564 38,000  Level FlightAware Transoceanic
Mon 04:14:00 PM 21.3424 134.0035 291° West 490 564 38,000  Level FlightAware Transoceanic
Mon 04:15:00 PM 21.3909 133.8679 291° West 490 564 38,000  Level FlightAware Transoceanic
Mon 04:16:00 PM 21.4393 133.7323 291° West 490 564 38,000  Level FlightAware Transoceanic
Mon 04:17:00 PM 21.4875 133.5965 291° West 490 564 38,000  Level FlightAware Transoceanic
Mon 04:18:00 PM 21.5357 133.4606 291° West 490 564 38,000  Level FlightAware Transoceanic
Mon 04:19:00 PM 21.5837 133.3247 291° West 490 564 38,000  Level FlightAware Transoceanic
Mon 04:20:00 PM 21.6317 133.1887 291° West 490 564 38,000  Level FlightAware Transoceanic
Mon 04:21:00 PM 21.6795 133.0526 291° West 490 564 38,000  Level FlightAware Transoceanic
Mon 04:22:00 PM 21.7272 132.9164 291° West 490 564 38,000  Level FlightAware Transoceanic
Mon 04:23:00 PM 21.7748 132.7801 291° West 490 564 38,000  Level FlightAware Transoceanic
Mon 04:24:00 PM 21.8223 132.6437 291° West 490 564 38,000  Level FlightAware Transoceanic
Mon 04:25:00 PM 21.8697 132.5072 290° West 490 564 38,000  Level FlightAware Transoceanic
Mon 04:26:00 PM 21.9169 132.3707 290° West 490 564 38,000  Level FlightAware Transoceanic
Mon 04:27:00 PM 21.9641 132.2340 290° West 490 564 38,000  Level FlightAware Transoceanic
Mon 04:28:00 PM 22.0111 132.0972 290° West 490 564 38,000  Level FlightAware Transoceanic
Mon 04:29:00 PM 22.0581 131.9604 290° West 490 564 38,000  Level FlightAware Transoceanic
Mon 04:30:00 PM 22.1049 131.8235 290° West 490 564 38,000  Level FlightAware Transoceanic
Mon 04:31:00 PM 22.1516 131.6865 290° West 490 564 38,000  Level FlightAware Transoceanic
Mon 04:32:00 PM 22.1982 131.5493 290° West 490 564 38,000  Level FlightAware Transoceanic
Mon 04:33:00 PM 22.2446 131.4122 290° West 490 564 38,000  Level FlightAware Transoceanic
Mon 04:34:00 PM 22.2910 131.2749 290° West 490 564 38,000  Level FlightAware Transoceanic
Mon 04:35:00 PM 22.3372 131.1375 290° West 490 564 38,000 29 Level FlightAware Transoceanic
Mon 04:36:00 PM 22.3639 130.9978 282° West  Level FlightAware Approximate
Mon 04:37:00 PM 22.3904 130.8581 282° West  Level FlightAware Approximate
Mon 04:38:00 PM 22.4748 130.9368 338° Northwest  Level FlightAware Approximate
Mon 04:39:00 PM 22.5973 130.8840 338° Northwest  Level FlightAware Approximate
Mon 04:40:00 PM 22.7198 130.8311 338° Northwest  Level FlightAware Approximate
Mon 04:41:00 PM 22.8423 130.7781 338° Northwest  Level FlightAware Approximate
Mon 04:42:00 PM 22.9648 130.7250 338° Northwest  Level FlightAware Approximate
Mon 04:43:00 PM 23.0873 130.6718 338° Northwest  Level FlightAware Approximate
Mon 04:44:00 PM 23.2097 130.6185 338° Northwest  Level FlightAware Approximate
Mon 04:45:00 PM 23.3322 130.5651 338° Northwest  Level FlightAware Approximate
Mon 04:46:00 PM 23.4546 130.5116 338° Northwest  Level FlightAware Approximate
Mon 04:47:00 PM 23.5770 130.4579 338° Northwest  Level FlightAware Approximate
Mon 04:48:00 PM 23.6993 130.4042 338° Northwest  Level FlightAware Approximate
Mon 04:49:00 PM 23.8217 130.3504 338° Northwest  Level FlightAware Approximate
Mon 04:50:00 PM 23.9440 130.2964 338° Northwest  Level FlightAware Approximate
Mon 04:51:00 PM 24.0663 130.2424 338° Northwest  Level FlightAware Approximate
Mon 04:52:00 PM 24.1886 130.1883 338° Northwest  Level FlightAware Approximate
Mon 04:53:00 PM 24.3109 130.1340 338° Northwest  Level FlightAware Approximate
Mon 04:54:00 PM 24.4330 130.0794 338° Northwest  Level FlightAware Approximate
Mon 04:55:00 PM 24.5551 130.0245 338° Northwest  Level FlightAware Approximate
Mon 04:56:00 PM 24.6771 129.9695 338° Northwest  Level FlightAware Approximate
Mon 04:57:00 PM 24.7992 129.9144 338° Northwest  Level FlightAware Approximate
Mon 04:58:00 PM 24.9212 129.8593 338° Northwest  Level FlightAware Approximate
Mon 04:59:00 PM 25.0432 129.8040 338° Northwest  Level FlightAware Approximate
Mon 05:00:00 PM 25.1652 129.7486 338° Northwest  Level FlightAware Approximate
Mon 05:01:00 PM 25.2871 129.6931 338° Northwest  Level FlightAware Approximate
Mon 05:02:00 PM 25.4091 129.6375 338° Northwest  Level FlightAware Approximate
Mon 05:03:00 PM 25.5310 129.5818 338° Northwest  Level FlightAware Approximate
Mon 05:04:00 PM 25.6529 129.5259 338° Northwest  Level FlightAware Approximate
Mon 05:05:00 PM 25.7748 129.4700 338° Northwest  Level FlightAware Approximate
Mon 05:06:00 PM 25.8967 129.4139 338° Northwest  Level FlightAware Approximate
Mon 05:07:00 PM 26.0185 129.3578 337° Northwest  Level FlightAware Approximate
Mon 05:08:00 PM 26.1403 129.3015 337° Northwest  Level FlightAware Approximate
Mon 05:08:08 PM 25.8230 128.2430 337° Northwest 486 559 39,000  Level FlightAware ADS-B
Mon 05:08:53 PM 25.8890 128.1580 311° West 486 559 39,000  Level FlightAware ADS-B
Mon 05:09:00 PM 26.2621 129.2450 337° Northwest  Level FlightAware Approximate
Mon 05:09:28 PM 25.9410 128.0900 310° West 485 558 39,000  Level FlightAware ADS-B
Mon 05:10:08 PM 26.0080 128.0260 319° Northwest 475 547 39,000  Level FlightAware ADS-B
Mon 05:11:08 PM 26.1350 128.0010 350° North 471 542 39,000  Level FlightAware ADS-B
Mon 05:11:48 PM 26.2200 127.9980 358° North 471 542 39,000  Level FlightAware ADS-B
Mon 05:12:28 PM 26.3080 127.9950 358° North 471 542 39,000  Level FlightAware ADS-B
Mon 05:13:24 PM 26.4290 127.9900 358° North 471 542 39,000  Level FlightAware ADS-B
Mon 05:14:04 PM 26.5200 127.9860 358° North 471 542 39,000  Level FlightAware ADS-B
Mon 05:14:39 PM 26.5970 127.9820 357° North 471 542 39,000  Level FlightAware ADS-B
Mon 05:15:24 PM 26.6920 127.9780 358° North 471 542 39,000  Level FlightAware ADS-B
Mon 05:16:04 PM 26.7790 127.9750 358° North 471 542 39,000  Level FlightAware ADS-B
Mon 05:16:49 PM 26.8800 127.9700 357° North 471 542 39,000  Level FlightAware ADS-B
Mon 05:17:29 PM 26.9640 127.9660 358° North 471 542 39,000  Level FlightAware ADS-B
Mon 05:18:09 PM 27.0560 127.9620 358° North 471 542 39,000  Level FlightAware ADS-B
Mon 05:18:54 PM 27.1520 127.9580 358° North 472 543 39,000  Level FlightAware ADS-B
Mon 05:19:30 PM 27.2310 127.9550 358° North 471 542 39,000  Level FlightAware ADS-B
Mon 05:20:06 PM 27.2970 127.9520 358° North 471 542 39,000  Level FlightAware ADS-B
Mon 05:20:54 PM 27.3860 127.9490 358° North 471 542 39,000  Level FlightAware ADS-B
Mon 05:21:30 PM 27.4520 127.9460 358° North 471 542 39,000  Level FlightAware ADS-B
Mon 05:22:05 PM 27.5710 127.9400 357° North 470 541 39,000  Level FlightAware ADS-B
Mon 05:22:52 PM 27.6680 127.9360 358° North 470 541 39,000  Level FlightAware ADS-B
Mon 05:23:30 PM 27.7480 127.9320 357° North 471 542 39,000  Level FlightAware ADS-B
Mon 05:24:10 PM 27.8350 127.9280 358° North 471 542 39,000  Level FlightAware ADS-B
Mon 05:25:08 PM 27.9590 127.9230 358° North 471 542 39,000  Level FlightAware ADS-B
Mon 05:25:51 PM 28.0570 127.9190 358° North 471 542 39,000  Level FlightAware ADS-B
Mon 05:26:28 PM 28.1250 127.9160 358° North 471 542 39,000  Level FlightAware ADS-B
Mon 05:27:16 PM 28.2140 127.9120 358° North 471 542 39,000  Level FlightAware ADS-B
Mon 05:27:54 PM 28.3180 127.9070 358° North 471 542 39,000  Level FlightAware ADS-B
Mon 05:28:40 PM 28.4160 127.9030 358° North 472 543 39,000  Level FlightAware ADS-B
Mon 05:29:52 PM 28.5490 127.8980 358° North 472 543 39,000  Level FlightAware ADS-B
Mon 05:30:28 PM 28.6160 127.8950 358° North 472 543 39,000  Level FlightAware ADS-B
Mon 05:31:15 PM 28.7030 127.8910 358° North 472 543 39,000  Level FlightAware ADS-B
Mon 05:32:03 PM 28.7920 127.8880 358° North 472 543 39,000  Level FlightAware ADS-B
Mon 05:32:40 PM 28.8610 127.8850 358° North 472 543 39,000  Level FlightAware ADS-B
Mon 05:33:17 PM 28.9300 127.8820 358° North 472 543 39,000  Level FlightAware ADS-B
Mon 05:34:06 PM 29.0210 127.8790 358° North 472 543 39,000  Level FlightAware ADS-B
Mon 05:35:54 PM 29.3660 127.7390 293° West 472 543 39,000  Level FlightAware ADS-B
Mon 05:36:00 PM 29.1205 127.6158 293° West  Level Estimated
Mon 05:36:32 PM 29.4350 127.7230 349° North 472 543 39,000  Level FlightAware ADS-B
Mon 05:37:20 PM 29.5460 127.6970 348° North 472 543 39,000  Level FlightAware ADS-B
Mon 05:37:58 PM 29.6150 127.6820 349° North 472 543 39,000  Level FlightAware ADS-B
Mon 05:38:34 PM 29.6810 127.6670 349° North 472 543 39,000  Level FlightAware ADS-B
Mon 05:39:22 PM 29.7680 127.6480 349° North 472 543 39,000  Level FlightAware ADS-B
Mon 05:39:58 PM 29.8340 127.6330 349° North 472 543 39,000  Level FlightAware ADS-B
Mon 05:40:58 PM 29.9430 127.6080 349° North 472 543 39,000  Level FlightAware ADS-B
Mon 05:41:34 PM 30.0090 127.5940 350° North 472 543 39,000  Level FlightAware ADS-B
Mon 05:42:22 PM 30.0960 127.5740 349° North 472 543 39,000  Level FlightAware ADS-B
Mon 05:42:59 PM 30.1640 127.5590 349° North 472 543 39,000  Level FlightAware ADS-B
Mon 05:43:35 PM 30.2290 127.5440 349° North 472 543 39,000  Level FlightAware ADS-B
Mon 05:44:35 PM 30.3390 127.5200 349° North 472 543 39,000  Level FlightAware ADS-B
Mon 05:45:02 PM 30.3880 127.5080 348° North 472 543 39,000  Level FlightAware ADS-B
Mon 05:45:38 PM 30.4540 127.4940 350° North 472 543 39,000  Level FlightAware ADS-B
Mon 05:46:26 PM 30.5410 127.4740 349° North 472 543 39,000 153 Level FlightAware ADS-B
Mon 05:49:00 PM 30.8794 127.4820 North  Level FlightAware Approximate
Mon 05:50:00 PM 30.8898 127.3288 343° North  Level Estimated
Mon 05:50:05 PM 31.1380 127.1550 343° North 40,000  Level FlightAware ADS-B
Mon 05:52:00 PM 31.1441 126.8597 271° West  Level Estimated
Mon 05:52:10 PM 31.3890 127.0370 271° West 465 535 40,000  Level FlightAware ADS-B
Mon 05:53:00 PM 31.4960 126.9870 338° Northwest 465 535 40,000  Level FlightAware ADS-B
Mon 05:53:40 PM 31.5740 126.9500 338° Northwest 465 535 40,000  Level FlightAware ADS-B
Mon 05:54:20 PM 31.6530 126.9110 337° Northwest 460 529 40,000  Level FlightAware ADS-B
Mon 05:55:05 PM 31.7250 126.8290 316° Northwest 480 552 40,000  Level FlightAware ADS-B
Mon 05:55:41 PM 31.7600 126.7530 298° West 482 555 40,000  Level FlightAware ADS-B
Mon 05:56:32 PM 31.8040 126.6510 297° West 482 555 40,000  Level FlightAware ADS-B
Mon 05:57:08 PM 31.8350 126.5800 297° West 482 555 40,000  Level FlightAware ADS-B
Mon 05:57:56 PM 31.8760 126.4840 297° West 482 555 40,000  Level FlightAware ADS-B
Mon 05:58:45 PM 31.9190 126.3870 298° West 482 555 40,000  Level FlightAware ADS-B
Mon 05:59:22 PM 31.9500 126.3130 296° West 482 555 40,000  Level FlightAware ADS-B
Mon 06:00:10 PM 31.9920 126.2180 298° West 482 555 40,000  Level FlightAware ADS-B
Mon 06:00:46 PM 32.0230 126.1460 297° West 482 555 40,000  Level FlightAware ADS-B
Mon 06:01:34 PM 32.0640 126.0500 297° West 482 555 40,000  Level FlightAware ADS-B
Mon 06:02:10 PM 32.0950 125.9780 297° West 482 555 40,000  Level FlightAware ADS-B
Mon 06:02:58 PM 32.1360 125.8830 297° West 482 555 40,000  Level FlightAware ADS-B
Mon 06:03:46 PM 32.1780 125.7870 297° West 482 555 40,000  Level FlightAware ADS-B
Mon 06:04:22 PM 32.2090 125.7150 297° West 482 555 40,000  Level FlightAware ADS-B
Mon 06:05:23 PM 32.2610 125.5930 297° West 482 555 40,000  Level FlightAware ADS-B
Mon 06:07:00 PM 32.1946 125.3535 252° West  Level Estimated
Mon 06:08:00 PM 32.1534 125.2055 252° West  Level Estimated
Mon 06:09:00 PM 32.1119 125.0576 252° West  Level Estimated
Mon 06:10:00 PM 32.0703 124.9099 252° West  Level Estimated
Mon 06:11:00 PM 32.0285 124.7623 252° West  Level Estimated
Mon 06:12:00 PM 31.9865 124.6148 251° West  Level Estimated
Mon 06:13:00 PM 31.9444 124.4675 251° West  Level Estimated
Mon 06:14:00 PM 31.9021 124.3203 251° West  Level Estimated
Mon 06:15:00 PM 31.8596 124.1733 251° West  Level Estimated
Mon 06:16:00 PM 31.8170 124.0264 251° West  Level Estimated
Mon 06:17:00 PM 31.7742 123.8796 251° West  Level Estimated
Mon 06:18:00 PM 31.7312 123.7329 251° West  Level Estimated
Mon 06:19:00 PM 31.6880 123.5864 251° West  Level Estimated
Mon 06:20:00 PM 31.6447 123.4401 251° West  Level Estimated
Mon 06:21:00 PM 31.6013 123.2938 251° West  Level Estimated
Mon 06:22:00 PM 31.5576 123.1477 251° West  Level Estimated
Mon 06:23:00 PM 31.5138 123.0018 251° West  Level Estimated
Mon 06:24:00 PM 31.4698 122.8559 251° West  Level Estimated
Mon 06:25:00 PM 31.4257 122.7103 250° West  Level Estimated
Mon 06:26:00 PM 31.3804 122.5614 250° West  Level Estimated
Mon 06:27:00 PM 31.3349 122.4126 250° West  Level Estimated
Mon 06:28:00 PM 31.2892 122.2640 250° West  Level Estimated
Mon 06:29:00 PM 31.2433 122.1156 250° West  Level Estimated
Mon 06:30:00 PM 31.1973 121.9673 250° West  Level Estimated
Mon 06:31:00 PM 31.1512 121.8191 250° West  Level Estimated
Mon 06:32:00 PM 31.1428 121.7924 250° West  Level Estimated
Mon 06:33:00 PM 31.1428 121.7924 221° Southwest  Level Estimated
Mon 06:34:00 PM 31.1428 121.7924 221° Southwest  Level Estimated
Mon 06:35:00 PM 31.1428 121.7924 221° Southwest  Level Estimated
Mon 06:36:00 PM 31.1428 121.7924 221° Southwest  Level Estimated
Mon 06:37:00 PM 31.1428 121.7924 221° Southwest  Level Estimated
Mon 06:38:00 PM 31.1428 121.7924 221° Southwest  Level Estimated
Mon 06:39:00 PM 31.1428 121.7924 221° Southwest  Level Estimated

Login

Don't have an account? Register now (free) for customized features, flight alerts, and more!